createdAt,value
2019-03-25T00:00:00.014Z,3.10
2019-03-25T00:02:30.980Z,3.93
2019-03-25T00:05:01.797Z,3.87
2019-03-25T00:07:32.696Z,3.53
2019-03-25T00:10:03.676Z,3.60
2019-03-25T00:12:34.560Z,3.60
2019-03-25T00:15:05.576Z,3.33
2019-03-25T00:17:37.645Z,4.00
2019-03-25T00:20:09.177Z,3.70
2019-03-25T00:22:40.060Z,3.40
2019-03-25T00:25:11.303Z,4.13
2019-03-25T00:27:42.111Z,3.70
2019-03-25T00:30:13.158Z,3.30
2019-03-25T00:32:44.121Z,3.23
2019-03-25T00:35:14.980Z,3.40
2019-03-25T00:37:45.864Z,4.03
2019-03-25T00:40:16.792Z,3.47
2019-03-25T00:42:47.681Z,3.77
2019-03-25T00:45:18.557Z,3.50
2019-03-25T00:47:49.512Z,4.07
2019-03-25T00:50:20.380Z,4.20
2019-03-25T00:52:51.189Z,4.27
2019-03-25T00:55:22.177Z,4.27
2019-03-25T00:57:53.040Z,4.77
2019-03-25T01:00:24.017Z,4.83
2019-03-25T01:02:54.856Z,4.67
2019-03-25T01:05:25.749Z,4.10
2019-03-25T01:07:56.510Z,4.40
2019-03-25T01:10:27.878Z,4.80
2019-03-25T01:12:58.680Z,4.40
2019-03-25T01:15:29.476Z,4.63
2019-03-25T01:18:00.277Z,4.40
2019-03-25T01:20:31.153Z,5.03
2019-03-25T01:23:02.016Z,5.00
2019-03-25T01:25:32.820Z,4.60
2019-03-25T01:28:03.734Z,3.97
2019-03-25T01:30:34.773Z,4.70
2019-03-25T01:33:05.718Z,4.90
2019-03-25T01:35:36.620Z,4.87
2019-03-25T01:38:07.554Z,4.77
2019-03-25T01:40:38.424Z,4.53
2019-03-25T01:43:09.237Z,4.80
2019-03-25T01:45:40.025Z,4.50
2019-03-25T01:48:10.829Z,4.97
2019-03-25T01:50:41.772Z,4.63
2019-03-25T01:53:12.780Z,4.90
2019-03-25T01:55:44.616Z,5.03
2019-03-25T01:58:15.520Z,5.23
2019-03-25T02:00:46.433Z,5.33
2019-03-25T02:03:17.318Z,5.10
2019-03-25T02:05:48.117Z,5.00
2019-03-25T02:08:19.029Z,5.63
2019-03-25T02:10:49.853Z,5.63
2019-03-25T02:13:20.660Z,5.37
2019-03-25T02:15:51.500Z,5.57
2019-03-25T02:18:23.293Z,5.43
2019-03-25T02:20:54.277Z,5.53
2019-03-25T02:23:25.192Z,6.00
2019-03-25T02:25:56.021Z,6.63
2019-03-25T02:28:26.841Z,5.70
2019-03-25T02:30:58.691Z,5.70
2019-03-25T02:33:29.648Z,5.80
2019-03-25T02:36:00.502Z,4.97
2019-03-25T02:38:31.306Z,5.63
2019-03-25T02:41:02.114Z,5.40
2019-03-25T02:43:33.053Z,5.63
2019-03-25T02:46:04.071Z,5.00
2019-03-25T02:48:34.865Z,4.90
2019-03-25T02:51:05.645Z,5.17
2019-03-25T02:53:36.583Z,4.73
2019-03-25T02:56:07.677Z,4.93
2019-03-25T02:58:38.546Z,4.33
2019-03-25T03:01:10.389Z,4.30
2019-03-25T03:03:41.254Z,4.50
2019-03-25T03:06:12.132Z,5.00
2019-03-25T03:08:42.925Z,4.27
2019-03-25T03:11:13.794Z,4.30
2019-03-25T03:13:44.589Z,4.23
2019-03-25T03:16:15.534Z,4.33
2019-03-25T03:18:46.605Z,4.73
2019-03-25T03:21:17.400Z,4.20
2019-03-25T03:23:48.181Z,4.90
2019-03-25T03:26:18.973Z,4.47
2019-03-25T03:28:49.841Z,4.30
2019-03-25T03:31:20.742Z,4.00
2019-03-25T03:33:51.525Z,4.23
2019-03-25T03:36:22.346Z,3.80
2019-03-25T03:38:53.125Z,3.33
2019-03-25T03:41:23.917Z,3.57
2019-03-25T03:43:54.779Z,2.93
2019-03-25T03:46:25.594Z,3.10
2019-03-25T03:48:56.477Z,3.40
2019-03-25T03:51:27.429Z,3.30
2019-03-25T03:53:58.493Z,3.50
2019-03-25T03:56:30.855Z,2.90
2019-03-25T03:59:03.783Z,3.07
2019-03-25T04:01:46.694Z,2.90
2019-03-25T04:04:17.514Z,3.07
2019-03-25T04:06:48.468Z,2.70
2019-03-25T04:09:19.333Z,3.10
2019-03-25T04:11:50.289Z,3.00
2019-03-25T04:14:21.409Z,2.67
2019-03-25T04:16:52.222Z,3.03
2019-03-25T04:19:22.998Z,2.73
2019-03-25T04:21:53.790Z,2.43
2019-03-25T04:24:24.667Z,2.87
2019-03-25T04:26:55.481Z,2.43
2019-03-25T04:29:26.263Z,2.60
2019-03-25T04:31:57.086Z,3.17
2019-03-25T04:34:27.871Z,3.17
2019-03-25T04:36:58.731Z,2.77
2019-03-25T04:39:29.803Z,3.17
2019-03-25T04:42:00.715Z,2.80
2019-03-25T04:44:31.597Z,3.03
2019-03-25T04:47:02.496Z,3.00
2019-03-25T04:49:33.282Z,2.53
2019-03-25T04:52:04.177Z,2.70
2019-03-25T04:54:34.993Z,2.47
2019-03-25T04:57:05.830Z,3.10
2019-03-25T04:59:37.605Z,3.20
2019-03-25T05:02:08.412Z,3.13
2019-03-25T05:04:39.210Z,3.30
2019-03-25T05:07:09.997Z,3.00
2019-03-25T05:09:40.794Z,2.77
2019-03-25T05:12:11.703Z,3.50
2019-03-25T05:14:42.558Z,3.53
2019-03-25T05:17:13.383Z,2.90
2019-03-25T05:19:44.158Z,2.87
2019-03-25T05:22:14.949Z,3.50
2019-03-25T05:24:45.713Z,3.07
2019-03-25T05:27:16.654Z,2.80
2019-03-25T05:29:47.453Z,2.70
2019-03-25T05:32:18.254Z,2.87
2019-03-25T05:34:49.093Z,3.27
2019-03-25T05:37:19.902Z,2.53
2019-03-25T05:39:50.702Z,3.27
2019-03-25T05:42:21.489Z,3.10
2019-03-25T05:44:52.357Z,2.63
2019-03-25T05:47:23.148Z,2.93
2019-03-25T05:49:53.930Z,3.10
2019-03-25T05:52:24.742Z,2.67
2019-03-25T05:54:55.609Z,3.30
2019-03-25T05:57:26.554Z,3.43
2019-03-25T05:59:57.337Z,2.83
2019-03-25T06:02:28.134Z,3.50
2019-03-25T06:04:59.165Z,3.73
2019-03-25T06:07:29.957Z,3.07
2019-03-25T06:10:01.463Z,3.43
2019-03-25T06:12:32.336Z,3.50
2019-03-25T06:15:03.274Z,3.67
2019-03-25T06:17:34.282Z,3.57
2019-03-25T06:20:05.366Z,3.93
2019-03-25T06:22:36.229Z,3.80
2019-03-25T06:25:07.627Z,3.70
2019-03-25T06:27:38.638Z,3.47
2019-03-25T06:30:10.803Z,3.87
2019-03-25T06:32:41.666Z,3.83
2019-03-25T06:35:12.642Z,3.57
2019-03-25T06:37:43.497Z,3.83
2019-03-25T06:40:14.452Z,3.37
2019-03-25T06:42:45.330Z,3.80
2019-03-25T06:45:16.322Z,3.43
2019-03-25T06:47:47.317Z,3.50
2019-03-25T06:50:18.261Z,4.53
2019-03-25T06:52:49.112Z,3.37
2019-03-25T06:55:19.910Z,4.37
2019-03-25T06:57:50.793Z,3.10
2019-03-25T07:00:22.014Z,3.87
2019-03-25T07:02:52.898Z,3.63
2019-03-25T07:05:23.694Z,4.47
2019-03-25T07:07:54.558Z,4.20
2019-03-25T07:10:33.314Z,3.47
2019-03-25T07:13:05.839Z,4.03
2019-03-25T07:15:36.629Z,3.27
2019-03-25T07:18:07.636Z,4.47
2019-03-25T07:20:38.546Z,3.50
2019-03-25T07:23:09.498Z,3.30
2019-03-25T07:25:40.294Z,3.67
2019-03-25T07:28:11.106Z,3.80
2019-03-25T07:30:41.993Z,3.40
2019-03-25T07:33:12.774Z,2.90
2019-03-25T07:35:43.754Z,2.80
2019-03-25T07:38:14.614Z,2.63
2019-03-25T07:40:45.486Z,2.70
2019-03-25T07:43:16.326Z,3.10
2019-03-25T07:45:47.186Z,3.07
2019-03-25T07:48:18.062Z,3.23
2019-03-25T07:50:48.882Z,3.43
2019-03-25T07:53:19.666Z,2.77
2019-03-25T07:55:50.463Z,2.93
2019-03-25T07:58:21.293Z,3.13
2019-03-25T08:00:52.102Z,2.67
2019-03-25T08:03:22.870Z,3.53
2019-03-25T08:05:53.769Z,2.77
2019-03-25T08:08:24.659Z,3.67
2019-03-25T08:10:55.534Z,3.37
2019-03-25T08:13:26.447Z,3.33
2019-03-25T08:15:57.366Z,3.77
2019-03-25T08:18:28.278Z,2.67
2019-03-25T08:20:59.051Z,2.83
2019-03-25T08:23:29.850Z,2.67
2019-03-25T08:26:00.741Z,2.23
2019-03-25T08:28:31.614Z,2.47
2019-03-25T08:31:02.470Z,2.20
2019-03-25T08:33:33.259Z,1.93
2019-03-25T08:36:04.382Z,2.10
2019-03-25T08:38:35.197Z,2.40
2019-03-25T08:41:06.128Z,3.00
2019-03-25T08:43:36.945Z,2.77
2019-03-25T08:46:07.800Z,3.40
2019-03-25T08:48:38.599Z,3.00
2019-03-25T08:51:09.463Z,2.40
2019-03-25T08:53:40.348Z,2.60
2019-03-25T08:56:11.203Z,2.80
2019-03-25T08:58:41.979Z,2.07
2019-03-25T09:01:12.788Z,2.43
2019-03-25T09:03:43.568Z,1.83
2019-03-25T09:06:14.367Z,2.00
2019-03-25T09:08:45.160Z,2.00
2019-03-25T09:11:16.034Z,2.13
2019-03-25T09:13:46.812Z,2.53
2019-03-25T09:16:17.774Z,1.80
2019-03-25T09:18:48.569Z,2.13
2019-03-25T09:21:19.603Z,2.27
2019-03-25T09:23:50.588Z,2.13
2019-03-25T09:26:21.548Z,2.67
2019-03-25T09:28:52.468Z,2.23
2019-03-25T09:31:23.329Z,2.50
2019-03-25T09:33:54.257Z,2.33
2019-03-25T09:36:25.369Z,2.60
2019-03-25T09:38:56.165Z,2.77
2019-03-25T09:41:27.057Z,2.50
2019-03-25T09:43:57.903Z,2.37
2019-03-25T09:46:28.876Z,2.77
2019-03-25T09:48:59.744Z,1.00
2019-03-25T09:51:31.731Z,1.07
2019-03-25T09:54:02.621Z,1.53
2019-03-25T09:56:33.451Z,1.47
2019-03-25T09:59:04.464Z,1.20
2019-03-25T10:01:35.251Z,1.10
2019-03-25T10:04:06.281Z,1.47
2019-03-25T10:06:37.508Z,1.30
2019-03-25T10:09:10.512Z,1.63
2019-03-25T10:11:41.305Z,1.67
2019-03-25T10:14:12.112Z,1.80
2019-03-25T10:16:42.896Z,1.87
2019-03-25T10:19:13.712Z,1.67
2019-03-25T10:22:03.524Z,1.83
2019-03-25T10:24:34.328Z,1.87
2019-03-25T10:27:05.279Z,1.87
2019-03-25T10:29:36.104Z,2.07
2019-03-25T10:32:07.057Z,2.37
2019-03-25T10:34:38.011Z,2.47
2019-03-25T10:37:08.885Z,2.70
2019-03-25T10:39:39.719Z,2.70
2019-03-25T10:42:10.516Z,2.27
2019-03-25T10:44:41.320Z,2.13
2019-03-25T10:47:12.256Z,2.57
2019-03-25T10:49:43.151Z,2.40
2019-03-25T10:52:14.034Z,2.67
2019-03-25T10:54:44.975Z,2.27
2019-03-25T10:57:15.918Z,2.50
2019-03-25T10:59:46.711Z,2.00
2019-03-25T11:02:17.648Z,2.70
2019-03-25T11:04:48.508Z,2.70
2019-03-25T11:07:19.381Z,2.03
2019-03-25T11:09:51.293Z,3.00
2019-03-25T11:12:22.080Z,2.43
2019-03-25T11:14:52.860Z,2.40
2019-03-25T11:17:23.779Z,1.90
2019-03-25T11:19:54.640Z,2.00
2019-03-25T11:22:25.434Z,1.50
2019-03-25T11:24:56.316Z,1.40
2019-03-25T11:27:27.572Z,1.57
2019-03-25T11:29:58.468Z,1.70
2019-03-25T11:32:29.296Z,1.90
2019-03-25T11:35:00.122Z,2.20
2019-03-25T11:37:32.396Z,1.90
2019-03-25T11:40:03.324Z,2.17
2019-03-25T11:42:34.299Z,2.20
2019-03-25T11:45:05.368Z,2.03
2019-03-25T11:47:36.312Z,2.23
2019-03-25T11:50:08.384Z,2.70
2019-03-25T11:52:39.180Z,2.53
2019-03-25T11:55:10.255Z,2.30
2019-03-25T11:57:41.052Z,1.87
2019-03-25T12:00:12.284Z,0.90
2019-03-25T12:02:43.156Z,0.80
2019-03-25T12:05:14.092Z,1.13
2019-03-25T12:07:44.884Z,1.10
2019-03-25T12:10:15.933Z,0.97
2019-03-25T12:12:46.728Z,0.80
2019-03-25T12:15:17.677Z,0.80
2019-03-25T12:17:48.480Z,1.23
2019-03-25T12:20:19.432Z,1.33
2019-03-25T12:22:50.226Z,1.70
2019-03-25T12:25:21.032Z,1.73
2019-03-25T12:27:51.916Z,2.20
2019-03-25T12:30:22.893Z,1.80
2019-03-25T12:33:03.653Z,1.80
2019-03-25T12:35:26.372Z,2.30
2019-03-25T12:37:57.320Z,1.63
2019-03-25T12:40:28.201Z,1.60
2019-03-25T12:42:59.068Z,1.83
2019-03-25T12:45:30.221Z,2.10
2019-03-25T12:48:01.412Z,1.73
2019-03-25T12:50:32.375Z,2.00
2019-03-25T12:53:03.376Z,1.90
2019-03-25T12:55:34.172Z,2.00
2019-03-25T12:58:07.436Z,2.43
2019-03-25T13:00:44.527Z,2.93
2019-03-25T13:03:15.384Z,2.33
2019-03-25T13:05:46.264Z,2.07
2019-03-25T13:08:17.133Z,2.43
2019-03-25T13:10:48.160Z,2.37
2019-03-25T13:13:19.093Z,2.20
2019-03-25T13:15:49.972Z,2.27
2019-03-25T13:18:20.789Z,2.43
2019-03-25T13:20:51.577Z,2.80
2019-03-25T13:23:22.460Z,2.20
2019-03-25T13:25:53.249Z,2.70
2019-03-25T13:28:24.100Z,2.70
2019-03-25T13:30:54.937Z,2.33
2019-03-25T13:33:25.777Z,2.87
2019-03-25T13:35:56.632Z,3.17
2019-03-25T13:38:27.544Z,2.83
2019-03-25T13:40:58.341Z,2.63
2019-03-25T13:43:29.228Z,2.23
2019-03-25T13:46:05.498Z,2.50
2019-03-25T13:48:32.625Z,2.90
2019-03-25T13:51:03.561Z,2.67
2019-03-25T13:53:34.369Z,2.27
2019-03-25T13:56:05.277Z,2.50
2019-03-25T13:58:36.057Z,2.17
2019-03-25T14:01:07.092Z,2.17
2019-03-25T14:03:38.033Z,2.87
2019-03-25T14:06:09.017Z,2.17
2019-03-25T14:08:39.853Z,2.17
2019-03-25T14:11:10.637Z,2.40
2019-03-25T14:13:49.043Z,2.17
2019-03-25T14:16:14.013Z,2.63
2019-03-25T14:18:44.877Z,2.53
2019-03-25T14:21:15.786Z,2.83
2019-03-25T14:23:46.622Z,3.10
2019-03-25T14:26:17.438Z,2.40
2019-03-25T14:28:48.225Z,3.27
2019-03-25T14:31:19.057Z,3.17
2019-03-25T14:33:49.853Z,2.67
2019-03-25T14:36:20.657Z,2.17
2019-03-25T14:38:51.449Z,2.20
2019-03-25T14:41:23.234Z,2.67
2019-03-25T14:43:54.169Z,2.20
2019-03-25T14:46:25.145Z,2.43
2019-03-25T14:48:56.021Z,2.27
2019-03-25T14:51:28.053Z,3.13
2019-03-25T14:53:58.873Z,2.50
2019-03-25T14:56:29.774Z,2.40
2019-03-25T14:59:00.589Z,2.87
2019-03-25T15:01:31.553Z,2.70
2019-03-25T15:04:02.450Z,2.70
2019-03-25T15:06:34.200Z,2.50
2019-03-25T15:09:08.338Z,2.63
2019-03-25T15:11:39.337Z,3.20
2019-03-25T15:14:10.260Z,2.47
2019-03-25T15:16:41.054Z,3.37
2019-03-25T15:19:11.961Z,2.93
2019-03-25T15:21:53.845Z,2.63
2019-03-25T15:24:24.853Z,2.70
2019-03-25T15:26:55.653Z,3.10
2019-03-25T15:29:26.501Z,2.87
2019-03-25T15:31:57.381Z,3.40
2019-03-25T15:34:28.303Z,2.63
2019-03-25T15:37:00.146Z,3.07
2019-03-25T15:39:31.105Z,3.20
2019-03-25T15:42:01.897Z,3.20
2019-03-25T15:44:32.677Z,3.00
2019-03-25T15:47:03.627Z,4.13
2019-03-25T15:49:34.423Z,3.77
2019-03-25T15:52:05.305Z,3.40
2019-03-25T15:54:36.192Z,4.03
2019-03-25T15:57:06.979Z,3.53
2019-03-25T15:59:37.862Z,3.93
2019-03-25T16:02:08.812Z,3.30
2019-03-25T16:04:39.630Z,3.87
2019-03-25T16:07:10.566Z,3.57
2019-03-25T16:09:41.373Z,3.20
2019-03-25T16:12:12.265Z,3.07
2019-03-25T16:14:43.148Z,3.73
2019-03-25T16:17:14.097Z,3.17
2019-03-25T16:19:45.002Z,3.20
2019-03-25T16:22:16.030Z,2.97
2019-03-25T16:24:46.826Z,3.43
2019-03-25T16:27:17.746Z,2.43
2019-03-25T16:29:48.549Z,2.77
2019-03-25T16:32:19.444Z,2.97
2019-03-25T16:34:50.497Z,2.30
2019-03-25T16:37:21.294Z,2.87
2019-03-25T16:39:53.197Z,3.47
2019-03-25T16:42:23.999Z,2.30
2019-03-25T16:44:54.794Z,3.10
2019-03-25T16:47:25.654Z,2.40
2019-03-25T16:49:56.553Z,2.47
2019-03-25T16:52:27.413Z,2.30
2019-03-25T16:54:58.226Z,2.40
2019-03-25T16:57:29.045Z,3.80
2019-03-25T16:59:59.842Z,2.13
2019-03-25T17:02:31.446Z,2.90
2019-03-25T17:05:02.241Z,2.30
2019-03-25T17:07:33.030Z,2.17
2019-03-25T17:10:04.353Z,2.10
2019-03-25T17:12:35.145Z,2.27
2019-03-25T17:15:06.234Z,1.83
2019-03-25T17:17:37.228Z,2.37
2019-03-25T17:20:08.221Z,1.80
2019-03-25T17:22:39.141Z,2.17
2019-03-25T17:25:10.325Z,2.20
2019-03-25T17:27:41.370Z,2.10
2019-03-25T17:30:15.511Z,1.97
2019-03-25T17:32:46.317Z,1.80
2019-03-25T17:35:17.174Z,2.30
2019-03-25T17:37:48.003Z,2.77
2019-03-25T17:40:18.932Z,2.50
2019-03-25T17:42:50.155Z,2.10
2019-03-25T17:45:21.285Z,2.27
2019-03-25T17:47:52.225Z,2.40
2019-03-25T17:50:23.090Z,2.10
2019-03-25T17:52:53.951Z,2.00
2019-03-25T17:55:24.841Z,2.60
2019-03-25T17:57:56.075Z,2.43
2019-03-25T18:01:18.083Z,2.53
2019-03-25T18:03:48.868Z,2.67
2019-03-25T18:06:19.750Z,2.40
2019-03-25T18:08:50.618Z,2.80
2019-03-25T18:11:22.906Z,3.10
2019-03-25T18:13:53.974Z,2.30
2019-03-25T18:16:24.765Z,2.60
2019-03-25T18:18:55.554Z,3.30
2019-03-25T18:21:26.366Z,2.97
2019-03-25T18:23:57.320Z,2.53
2019-03-25T18:26:28.102Z,3.50
2019-03-25T18:28:58.937Z,4.33
2019-03-25T18:31:29.803Z,3.37
2019-03-25T18:34:01.244Z,2.87
2019-03-25T18:36:32.106Z,4.63
2019-03-25T18:39:04.514Z,2.77
2019-03-25T18:41:35.717Z,2.50
2019-03-25T18:44:06.670Z,4.60
2019-03-25T18:46:37.563Z,3.37
2019-03-25T18:49:08.530Z,3.47
2019-03-25T18:51:40.508Z,2.97
2019-03-25T18:54:11.285Z,6.23
2019-03-25T18:56:42.252Z,2.40
2019-03-25T18:59:13.218Z,2.73
2019-03-25T19:01:54.004Z,2.60
2019-03-25T19:04:16.818Z,3.00
2019-03-25T19:06:49.077Z,2.30
2019-03-25T19:09:20.104Z,2.60
2019-03-25T19:11:50.920Z,2.40
2019-03-25T19:14:22.712Z,2.00
2019-03-25T19:16:53.523Z,2.50
2019-03-25T19:19:24.309Z,2.53
2019-03-25T19:21:55.093Z,2.30
2019-03-25T19:24:25.898Z,2.73
2019-03-25T19:26:56.957Z,2.10
2019-03-25T19:29:27.775Z,2.67
2019-03-25T19:32:06.587Z,2.97
2019-03-25T19:34:31.220Z,3.77
2019-03-25T19:37:02.001Z,4.00
2019-03-25T19:39:32.837Z,2.73
2019-03-25T19:42:03.729Z,2.87
2019-03-25T19:44:34.870Z,2.60
2019-03-25T19:47:05.831Z,2.50
2019-03-25T19:49:36.724Z,7.57
2019-03-25T19:52:09.449Z,3.10
2019-03-25T19:54:40.269Z,2.87
2019-03-25T19:57:11.165Z,2.97
2019-03-25T19:59:42.061Z,3.27
2019-03-25T20:02:19.051Z,2.93
2019-03-25T20:04:45.590Z,3.03
2019-03-25T20:07:16.493Z,2.93
2019-03-25T20:09:47.342Z,3.70
2019-03-25T20:12:18.158Z,3.33
2019-03-25T20:14:48.952Z,3.03
2019-03-25T20:17:19.744Z,2.67
2019-03-25T20:19:50.646Z,2.60
2019-03-25T20:22:21.553Z,2.23
2019-03-25T20:24:52.430Z,2.73
2019-03-25T20:27:23.259Z,2.70
2019-03-25T20:29:54.129Z,2.80
2019-03-25T20:32:31.538Z,2.83
2019-03-25T20:34:57.426Z,2.60
2019-03-25T20:37:28.304Z,2.47
2019-03-25T20:39:59.264Z,2.50
2019-03-25T20:42:30.037Z,2.73
2019-03-25T20:45:01.467Z,2.87
2019-03-25T20:47:32.349Z,2.40
2019-03-25T20:50:03.314Z,2.60
2019-03-25T20:52:34.252Z,2.60
2019-03-25T20:55:05.446Z,2.67
2019-03-25T20:57:36.462Z,2.80
2019-03-25T21:00:09.664Z,3.17
2019-03-25T21:02:45.350Z,2.77
2019-03-25T21:05:15.042Z,2.60
2019-03-25T21:07:46.099Z,2.50
2019-03-25T21:10:17.108Z,3.00
2019-03-25T21:12:48.033Z,2.77
2019-03-25T21:15:18.843Z,2.60
2019-03-25T21:17:49.642Z,3.00
2019-03-25T21:20:20.514Z,3.37
2019-03-25T21:22:51.314Z,2.80
2019-03-25T21:25:22.261Z,3.07
2019-03-25T21:27:53.137Z,2.50
2019-03-25T21:30:24.067Z,3.10
2019-03-25T21:33:03.602Z,2.97
2019-03-25T21:35:34.539Z,3.57
2019-03-25T21:38:05.589Z,2.73
2019-03-25T21:40:36.658Z,3.17
2019-03-25T21:43:08.760Z,2.77
2019-03-25T21:45:39.606Z,2.60
2019-03-25T21:48:10.574Z,2.93
2019-03-25T21:50:41.395Z,3.00
2019-03-25T21:53:12.508Z,3.03
2019-03-25T21:55:43.841Z,3.20
2019-03-25T21:58:14.741Z,2.80
2019-03-25T22:00:45.666Z,3.13
2019-03-25T22:03:16.671Z,3.00
2019-03-25T22:05:47.471Z,2.67
2019-03-25T22:08:19.232Z,3.10
2019-03-25T22:10:50.024Z,3.30
2019-03-25T22:13:20.818Z,3.07
2019-03-25T22:15:51.602Z,3.27
2019-03-25T22:18:22.473Z,3.20
2019-03-25T22:20:53.272Z,2.73
2019-03-25T22:23:24.054Z,3.57
2019-03-25T22:25:55.007Z,2.50
2019-03-25T22:28:25.863Z,2.73
2019-03-25T22:30:56.654Z,3.00
2019-03-25T22:33:27.455Z,2.73
2019-03-25T22:35:58.254Z,2.90
2019-03-25T22:38:29.042Z,3.30
2019-03-25T22:40:59.978Z,2.73
2019-03-25T22:43:30.823Z,2.43
2019-03-25T22:46:01.616Z,2.77
2019-03-25T22:48:32.522Z,2.90
2019-03-25T22:51:03.304Z,3.43
2019-03-25T22:53:35.064Z,2.63
2019-03-25T22:56:05.895Z,2.63
2019-03-25T22:58:36.702Z,2.67
2019-03-25T23:01:07.643Z,2.57
2019-03-25T23:03:39.678Z,2.97
2019-03-25T23:06:10.630Z,2.67
2019-03-25T23:08:41.423Z,3.20
2019-03-25T23:11:12.295Z,2.87
2019-03-25T23:13:43.086Z,2.97
2019-03-25T23:16:13.975Z,2.80
2019-03-25T23:18:44.765Z,3.50
2019-03-25T23:21:15.567Z,2.60
2019-03-25T23:23:46.438Z,2.80
2019-03-25T23:26:17.298Z,2.83
2019-03-25T23:28:48.086Z,2.57
2019-03-25T23:31:19.068Z,2.77
2019-03-25T23:33:52.577Z,2.63
2019-03-25T23:36:22.431Z,2.77
2019-03-25T23:38:53.227Z,3.33
2019-03-25T23:41:24.175Z,3.27
2019-03-25T23:43:54.958Z,3.20
2019-03-25T23:46:25.761Z,2.50
2019-03-25T23:48:56.555Z,3.03
2019-03-25T23:51:27.402Z,2.63
2019-03-25T23:54:15.048Z,2.90
2019-03-25T23:56:45.871Z,3.00
2019-03-25T23:59:16.668Z,3.17
